Time;durP1;ratioP1;P1;durP2;ratioP2;P2;SDS_P1;SDS_P2;PMS_P1;PMS_P2;Temp;Humidity;BMP_temperature;BMP_pressure;BME280_temperature;BME280_humidity;BME280_pressure;Samples;Min_cycle;Max_cycle;Signal;HPM_P1;HPM_P2
2022/07/13 00:00:15;;;;;;;;;;;;;;;17.03;60.00;97250.97;5038410;28;19963;-77
2022/07/13 00:02:41;;;;;;;;;;;;;;;17.00;60.35;97256.72;5056280;28;19969;-77
2022/07/13 00:05:07;;;;;;;;;;;;;;;16.96;60.50;97252.94;5055149;28;20011;-77
2022/07/13 00:07:34;;;;;;;;;;;;;;;16.91;60.47;97250.22;5056239;28;19964;-75
2022/07/13 00:10:00;;;;;;;;;;;;;;;16.88;60.21;97246.19;5056026;28;19966;-77
2022/07/13 00:12:26;;;;;;;;;;;;;;;16.84;60.82;97255.66;5056460;28;19964;-76
2022/07/13 00:14:52;;;;;;;;;;;;;;;16.80;60.80;97244.72;5055328;28;20324;-75
2022/07/13 00:17:18;;;;;;;;;;;;;;;16.76;61.25;97242.78;5056174;28;19959;-76
2022/07/13 00:19:43;;;;;;;;;;;;;;;16.74;61.12;97242.22;5056161;28;19965;-75
2022/07/13 00:22:09;;;;;;;;;;;;;;;16.71;61.39;97240.00;5055802;28;19979;-76
2022/07/13 00:24:35;;;;;;;;;;;;;;;16.67;60.89;97236.22;5055930;28;19958;-75
2022/07/13 00:27:01;;;;;;;;;;;;;;;16.66;61.07;97237.28;5037220;28;19979;-75
2022/07/13 00:29:27;;;;;;;;;;;;;;;16.62;61.20;97243.03;5055961;28;20470;-75
2022/07/13 00:31:53;;;;;;;;;;;;;;;16.59;61.13;97240.88;5055744;28;20405;-76
2022/07/13 00:34:19;;;;;;;;;;;;;;;16.57;61.50;97245.59;5055859;28;19957;-75
2022/07/13 00:36:45;;;;;;;;;;;;;;;16.56;61.50;97240.53;5055188;28;19958;-75
2022/07/13 00:39:10;;;;;;;;;;;;;;;16.54;62.17;97243.41;5055692;28;19963;-75
2022/07/13 00:41:43;;;;;;;;;;;;;;;16.51;62.05;97241.25;5055847;28;19990;-75
2022/07/13 00:44:09;;;;;;;;;;;;;;;16.49;62.34;97247.84;5041277;28;19948;-76
2022/07/13 00:46:36;;;;;;;;;;;;;;;16.44;62.44;97252.00;5055730;28;20344;-76
2022/07/13 00:49:02;;;;;;;;;;;;;;;16.40;62.95;97245.56;5037566;28;19965;-76
2022/07/13 00:51:28;;;;;;;;;;;;;;;16.38;62.84;97246.84;5055819;28;19967;-76
2022/07/13 00:53:54;;;;;;;;;;;;;;;16.35;63.07;97247.28;5055378;28;19985;-76
2022/07/13 00:56:20;;;;;;;;;;;;;;;16.32;62.35;97245.13;5054347;28;20329;-75
2022/07/13 00:58:46;;;;;;;;;;;;;;;16.29;62.57;97238.44;5055442;28;20065;-76
2022/07/13 01:01:12;;;;;;;;;;;;;;;16.27;62.55;97237.06;5055319;28;19952;-76
2022/07/13 01:03:38;;;;;;;;;;;;;;;16.26;62.44;97228.34;5055317;28;20338;-75
2022/07/13 01:06:05;;;;;;;;;;;;;;;16.23;63.03;97237.56;5055268;28;20076;-77
2022/07/13 01:08:32;;;;;;;;;;;;;;;16.19;63.29;97233.75;5054922;28;19965;-76
2022/07/13 01:10:59;;;;;;;;;;;;;;;16.14;63.41;97225.69;5055275;28;19957;-77
2022/07/13 01:13:25;;;;;;;;;;;;;;;16.12;63.73;97224.34;5055460;28;19960;-75
2022/07/13 01:21:51;;;;;;;;;;;;;;;16.01;63.04;97228.63;4986555;23;19980;-76
2022/07/13 01:24:17;;;;;;;;;;;;;;;15.98;63.06;97214.03;4957167;29;19957;-75
2022/07/13 01:26:43;;;;;;;;;;;;;;;15.96;63.26;97213.44;4956809;29;19974;-75
2022/07/13 01:29:09;;;;;;;;;;;;;;;15.95;63.67;97213.69;4955971;28;19966;-76
2022/07/13 01:31:38;;;;;;;;;;;;;;;15.90;63.91;97214.38;4956500;28;19949;-76
2022/07/13 01:34:05;;;;;;;;;;;;;;;15.88;64.26;97207.72;4956452;29;19955;-76
2022/07/13 01:36:31;;;;;;;;;;;;;;;15.84;64.37;97207.38;4956940;28;19967;-75
2022/07/13 01:38:58;;;;;;;;;;;;;;;15.82;63.73;97204.94;4957057;29;19962;-74
2022/07/13 01:41:27;;;;;;;;;;;;;;;15.80;64.02;97200.94;4956515;29;20444;-74
2022/07/13 01:43:53;;;;;;;;;;;;;;;15.78;64.18;97206.44;4956714;29;20336;-74
2022/07/13 01:46:19;;;;;;;;;;;;;;;15.76;64.60;97200.59;4956337;29;20009;-75
2022/07/13 01:48:45;;;;;;;;;;;;;;;15.75;64.77;97211.41;4956217;29;19961;-74
2022/07/13 01:51:11;;;;;;;;;;;;;;;15.72;64.94;97212.66;4956639;29;19970;-75
2022/07/13 01:53:36;;;;;;;;;;;;;;;15.71;64.91;97207.59;4956653;29;20439;-75
2022/07/13 01:56:02;;;;;;;;;;;;;;;15.70;65.12;97208.63;4956025;28;19962;-75
2022/07/13 01:58:28;;;;;;;;;;;;;;;15.68;65.19;97206.19;4956268;29;19965;-74
2022/07/13 02:00:55;;;;;;;;;;;;;;;15.68;65.18;97208.84;4956192;29;20104;-75
2022/07/13 02:03:21;;;;;;;;;;;;;;;15.68;65.26;97208.84;4956125;29;20450;-76
2022/07/13 02:05:46;;;;;;;;;;;;;;;15.68;65.16;97214.13;4956311;29;20051;-75
2022/07/13 02:08:12;;;;;;;;;;;;;;;15.66;65.15;97213.56;4955979;28;20390;-75
2022/07/13 02:10:39;;;;;;;;;;;;;;;15.65;65.36;97213.81;4955953;29;19959;-76
2022/07/13 02:13:06;;;;;;;;;;;;;;;15.63;64.72;97198.16;4956139;29;19971;-77
2022/07/13 02:15:32;;;;;;;;;;;;;;;15.62;64.91;97201.84;4955957;29;20411;-78
2022/07/13 02:17:57;;;;;;;;;;;;;;;15.58;65.16;97198.03;4955758;29;20018;-76
2022/07/13 02:20:24;;;;;;;;;;;;;;;15.55;65.27;97198.50;4956141;29;20333;-77
2022/07/13 02:22:50;;;;;;;;;;;;;;;15.50;64.90;97195.78;4955764;29;19978;-77
2022/07/13 02:25:16;;;;;;;;;;;;;;;15.46;65.14;97192.78;4955665;29;19955;-77
2022/07/13 02:27:43;;;;;;;;;;;;;;;15.43;65.32;97190.56;4955794;29;19990;-77
2022/07/13 02:30:10;;;;;;;;;;;;;;;15.41;65.39;97195.28;4955562;29;19959;-77
2022/07/13 02:32:36;;;;;;;;;;;;;;;15.38;65.75;97191.28;4955622;29;19962;-77
2022/07/13 02:35:02;;;;;;;;;;;;;;;15.37;65.11;97187.03;4955658;29;19966;-77
2022/07/13 02:37:28;;;;;;;;;;;;;;;15.33;65.19;97185.06;4955213;28;20350;-78
2022/07/13 02:39:56;;;;;;;;;;;;;;;15.29;65.31;97187.38;4955891;29;19991;-77
2022/07/13 02:42:22;;;;;;;;;;;;;;;15.27;65.52;97178.88;4955600;29;20409;-76
2022/07/13 02:44:49;;;;;;;;;;;;;;;15.23;66.09;97189.09;4955644;29;19959;-75
2022/07/13 02:47:15;;;;;;;;;;;;;;;15.19;65.86;97177.38;4955380;29;19970;-76
2022/07/13 02:49:41;;;;;;;;;;;;;;;15.16;65.63;97166.44;4955452;29;20434;-76
2022/07/13 02:52:07;;;;;;;;;;;;;;;15.11;66.33;97169.78;4955404;29;20314;-76
2022/07/13 02:54:33;;;;;;;;;;;;;;;15.07;66.87;97173.91;4955518;29;19995;-76
2022/07/13 02:56:59;;;;;;;;;;;;;;;15.03;66.80;97172.75;4955356;29;20471;-76
2022/07/13 02:59:25;;;;;;;;;;;;;;;15.00;66.93;97163.44;4955552;29;19957;-75
2022/07/13 03:01:50;;;;;;;;;;;;;;;14.95;67.13;97171.28;4953522;29;19963;-75
2022/07/13 03:04:16;;;;;;;;;;;;;;;14.91;67.27;97162.19;4955501;29;20010;-75
2022/07/13 03:06:42;;;;;;;;;;;;;;;14.85;67.43;97162.31;4955372;29;20008;-75
2022/07/13 03:09:08;;;;;;;;;;;;;;;14.81;67.83;97161.94;4955373;29;19963;-75
2022/07/13 03:11:34;;;;;;;;;;;;;;;14.79;67.38;97169.28;4955336;29;19964;-75
2022/07/13 03:14:03;;;;;;;;;;;;;;;14.77;67.57;97163.44;4955388;29;20482;-75
2022/07/13 03:16:29;;;;;;;;;;;;;;;14.74;67.74;97155.94;4955441;29;19962;-75
2022/07/13 03:18:55;;;;;;;;;;;;;;;14.70;68.20;97160.91;4955061;28;20362;-75
2022/07/13 03:21:21;;;;;;;;;;;;;;;14.67;68.20;97155.25;4955746;29;19989;-75
2022/07/13 03:23:47;;;;;;;;;;;;;;;14.65;68.30;97155.47;4955193;29;19965;-74
2022/07/13 03:26:12;;;;;;;;;;;;;;;14.63;68.16;97157.53;4954650;29;20021;-75
2022/07/13 03:28:38;;;;;;;;;;;;;;;14.61;68.22;97155.13;4955248;29;20047;-76
2022/07/13 03:31:05;;;;;;;;;;;;;;;14.58;68.49;97155.56;4955241;29;20384;-74
2022/07/13 03:33:30;;;;;;;;;;;;;;;14.56;68.42;97154.19;4955097;29;19972;-75
2022/07/13 03:35:56;;;;;;;;;;;;;;;14.53;67.86;97142.22;4955102;28;19960;-75
2022/07/13 03:38:22;;;;;;;;;;;;;;;14.50;67.79;97142.66;4955111;29;20014;-75
2022/07/13 03:40:48;;;;;;;;;;;;;;;14.49;67.98;97149.00;4955146;29;19965;-75
2022/07/13 03:43:14;;;;;;;;;;;;;;;14.47;68.57;97147.56;4955017;29;19966;-75
2022/07/13 03:45:40;;;;;;;;;;;;;;;14.48;68.69;97154.47;4937897;29;20020;-75
2022/07/13 03:48:06;;;;;;;;;;;;;;;14.45;68.91;97150.47;4955056;29;19981;-75
2022/07/13 03:50:32;;;;;;;;;;;;;;;14.45;69.31;97149.63;4954874;29;19996;-75
2022/07/13 03:52:58;;;;;;;;;;;;;;;14.41;69.11;97150.09;4955129;29;20364;-75
2022/07/13 03:55:23;;;;;;;;;;;;;;;14.38;69.37;97142.66;4954872;29;20021;-76
2022/07/13 03:57:49;;;;;;;;;;;;;;;14.38;68.93;97141.81;4954812;28;20037;-76
2022/07/13 04:00:15;;;;;;;;;;;;;;;14.36;68.92;97136.78;4954815;28;20015;-77
2022/07/13 04:02:41;;;;;;;;;;;;;;;14.35;69.53;97145.72;4958319;29;20056;-75
2022/07/13 04:05:07;;;;;;;;;;;;;;;14.33;69.32;97141.69;4958267;29;19973;-75
2022/07/13 04:07:33;;;;;;;;;;;;;;;14.30;69.58;97142.97;4958387;28;19969;-75
2022/07/13 04:09:59;;;;;;;;;;;;;;;14.30;70.05;97152.69;4957910;28;19962;-75
2022/07/13 04:12:25;;;;;;;;;;;;;;;14.29;69.96;97146.63;4958228;29;19963;-75
2022/07/13 04:14:51;;;;;;;;;;;;;;;14.26;69.74;97139.16;4958343;29;19968;-75
2022/07/13 04:17:16;;;;;;;;;;;;;;;14.25;69.85;97140.16;4958292;29;19961;-74
2022/07/13 04:19:42;;;;;;;;;;;;;;;14.34;70.81;97128.28;4957998;29;20006;-74
2022/07/13 04:22:08;;;;;;;;;;;;;;;14.55;70.74;97131.44;4957902;29;20084;-76
2022/07/13 04:24:34;;;;;;;;;;;;;;;14.79;70.19;97130.47;4957964;29;19976;-76
2022/07/13 04:27:00;;;;;;;;;;;;;;;14.99;69.35;97118.78;4957834;29;20390;-75
2022/07/13 04:29:26;;;;;;;;;;;;;;;15.16;67.93;97103.03;4956922;29;19967;-75
2022/07/13 04:31:52;;;;;;;;;;;;;;;15.21;67.77;97111.88;4957836;29;20063;-75
2022/07/13 04:34:17;;;;;;;;;;;;;;;15.21;67.98;97106.59;4957679;29;19977;-76
2022/07/13 04:36:43;;;;;;;;;;;;;;;15.21;67.87;97103.16;4957811;29;19963;-76
2022/07/13 04:39:09;;;;;;;;;;;;;;;15.18;68.12;97095.69;4957796;29;19965;-76
2022/07/13 04:41:35;;;;;;;;;;;;;;;15.19;67.95;97100.75;4957322;29;19983;-75
2022/07/13 04:44:01;;;;;;;;;;;;;;;15.21;68.29;97106.59;4957273;29;20006;-76
2022/07/13 04:46:27;;;;;;;;;;;;;;;15.26;68.17;97103.25;4957626;29;19999;-75
2022/07/13 04:48:53;;;;;;;;;;;;;;;15.31;68.27;97098.09;4957423;29;20417;-76
2022/07/13 04:51:19;;;;;;;;;;;;;;;15.34;67.91;97089.69;4957480;29;20321;-75
2022/07/13 04:53:45;;;;;;;;;;;;;;;15.43;67.67;97092.78;4957660;29;19994;-76
2022/07/13 04:56:12;;;;;;;;;;;;;;;15.52;67.48;97087.97;4956262;29;19971;-76
2022/07/13 04:58:38;;;;;;;;;;;;;;;15.57;66.15;97080.13;4957289;29;19965;-76
2022/07/13 05:01:06;;;;;;;;;;;;;;;15.64;66.29;97086.06;4957372;29;19968;-75
2022/07/13 05:03:32;;;;;;;;;;;;;;;15.74;66.02;97090.78;4957150;29;19971;-76
2022/07/13 05:05:58;;;;;;;;;;;;;;;15.90;65.99;97100.63;4957331;29;20328;-76
2022/07/13 05:08:25;;;;;;;;;;;;;;;16.08;66.00;97099.63;4957170;29;20437;-76
2022/07/13 05:10:51;;;;;;;;;;;;;;;16.30;65.10;97091.84;4956995;29;19961;-75
2022/07/13 05:13:17;;;;;;;;;;;;;;;16.51;64.87;97092.97;4956808;28;19959;-76
2022/07/13 05:15:43;;;;;;;;;;;;;;;16.77;64.41;97080.94;4955663;29;20435;-76
2022/07/13 05:18:09;;;;;;;;;;;;;;;17.02;63.84;97088.50;4957161;29;20060;-76
2022/07/13 05:20:35;;;;;;;;;;;;;;;17.32;63.31;97084.66;4956961;29;20098;-76
2022/07/13 05:23:01;;;;;;;;;;;;;;;17.63;63.15;97079.75;4957044;29;20011;-76
2022/07/13 05:25:26;;;;;;;;;;;;;;;17.97;61.84;97076.97;4956956;29;20344;-76
2022/07/13 05:27:52;;;;;;;;;;;;;;;18.26;60.35;97061.59;4956982;29;20034;-76
2022/07/13 05:30:18;;;;;;;;;;;;;;;18.46;59.95;97061.78;4957224;29;19973;-75
2022/07/13 05:32:44;;;;;;;;;;;;;;;18.61;58.91;97049.66;4956748;29;19964;-76
2022/07/13 05:35:10;;;;;;;;;;;;;;;18.66;58.67;97052.34;4956480;28;19974;-76
2022/07/13 05:37:36;;;;;;;;;;;;;;;18.75;58.58;97055.34;4956524;29;20006;-76
2022/07/13 05:40:02;;;;;;;;;;;;;;;18.85;58.50;97058.88;4956791;29;20035;-76
2022/07/13 05:42:28;;;;;;;;;;;;;;;18.97;58.09;97053.38;4956353;29;20463;-76
2022/07/13 05:44:54;;;;;;;;;;;;;;;19.06;57.94;97054.50;4956384;29;19968;-76
2022/07/13 05:47:20;;;;;;;;;;;;;;;19.11;58.06;97059.06;4956356;29;20067;-75
2022/07/13 05:49:46;;;;;;;;;;;;;;;19.35;58.43;97059.44;4956717;29;20017;-76
2022/07/13 05:52:12;;;;;;;;;;;;;;;19.68;57.65;97049.47;4956173;29;20353;-76
2022/07/13 05:54:37;;;;;;;;;;;;;;;19.93;56.14;97031.97;4956664;29;19969;-75
2022/07/13 05:57:03;;;;;;;;;;;;;;;20.12;56.55;97030.44;4956267;29;19967;-76
2022/07/13 05:59:29;;;;;;;;;;;;;;;20.27;55.39;97026.97;4956223;29;20058;-76
2022/07/13 06:01:55;;;;;;;;;;;;;;;20.34;55.56;97024.06;4956045;29;20413;-76
2022/07/13 06:04:21;;;;;;;;;;;;;;;20.24;55.36;97027.50;4956132;29;20051;-76
2022/07/13 06:06:47;;;;;;;;;;;;;;;20.44;55.64;97032.84;4956156;29;19972;-76
2022/07/13 06:09:13;;;;;;;;;;;;;;;20.71;54.75;97031.78;4955931;29;19965;-76
2022/07/13 06:11:42;;;;;;;;;;;;;;;21.00;54.46;97032.00;4956366;28;19968;-76
2022/07/13 06:14:07;;;;;;;;;;;;;;;21.35;54.92;97040.16;4955917;29;19983;-76
2022/07/13 06:16:33;;;;;;;;;;;;;;;21.60;53.65;97023.28;4956294;29;19994;-76
2022/07/13 06:18:59;;;;;;;;;;;;;;;21.73;54.20;97035.22;4955883;29;19973;-76
2022/07/13 06:21:25;;;;;;;;;;;;;;;21.88;53.02;97025.28;4956142;29;20049;-76
2022/07/13 06:23:51;;;;;;;;;;;;;;;22.08;51.64;97016.31;4955301;28;19974;-76
2022/07/13 06:26:17;;;;;;;;;;;;;;;22.18;50.96;97012.00;4955873;29;19990;-76
2022/07/13 06:28:43;;;;;;;;;;;;;;;22.19;50.43;97017.03;4955611;28;19977;-76
2022/07/13 06:31:09;;;;;;;;;;;;;;;22.29;50.65;97021.53;4955562;29;20446;-76
2022/07/13 06:33:35;;;;;;;;;;;;;;;22.32;48.92;97006.81;4955744;29;19964;-76
2022/07/13 06:36:01;;;;;;;;;;;;;;;22.42;50.13;97034.25;4955600;29;19992;-76
2022/07/13 06:38:27;;;;;;;;;;;;;;;22.48;49.61;97021.66;4955469;29;20395;-76
2022/07/13 06:40:53;;;;;;;;;;;;;;;22.56;49.55;97033.63;4955606;29;19993;-76
2022/07/13 06:43:19;;;;;;;;;;;;;;;22.48;48.86;97035.81;4955514;29;20335;-77
2022/07/13 06:45:45;;;;;;;;;;;;;;;22.41;50.16;97046.03;4955665;29;20446;-76
2022/07/13 06:48:10;;;;;;;;;;;;;;;22.45;50.97;97048.97;4955550;29;20049;-76
2022/07/13 06:50:36;;;;;;;;;;;;;;;22.53;49.67;97053.69;4955880;29;20034;-76
2022/07/13 06:53:03;;;;;;;;;;;;;;;22.46;49.73;97045.19;4955377;29;20052;-76
2022/07/13 06:55:29;;;;;;;;;;;;;;;22.44;50.38;97048.13;4955379;29;19969;-76
2022/07/13 06:57:55;;;;;;;;;;;;;;;22.42;50.30;97046.84;4955630;29;19965;-76
2022/07/13 07:00:21;;;;;;;;;;;;;;;22.41;50.70;97045.25;4955547;29;19963;-76
2022/07/13 07:02:47;;;;;;;;;;;;;;;22.43;51.14;97051.13;4955275;29;19963;-75
2022/07/13 07:05:13;;;;;;;;;;;;;;;22.44;51.14;97050.81;4955543;29;19963;-76
2022/07/13 07:07:40;;;;;;;;;;;;;;;22.46;51.97;97058.56;4955573;29;20339;-76
2022/07/13 07:10:10;;;;;;;;;;;;;;;22.51;51.13;97055.88;4955552;29;19957;-75
2022/07/13 07:12:36;;;;;;;;;;;;;;;22.49;49.76;97050.78;4955708;28;20434;-76
2022/07/13 07:15:02;;;;;;;;;;;;;;;22.43;49.72;97056.47;4955229;29;20447;-75
2022/07/13 07:17:28;;;;;;;;;;;;;;;22.36;50.89;97063.97;4954898;28;19961;-76
2022/07/13 07:19:59;;;;;;;;;;;;;;;22.37;51.58;97071.72;4955130;29;19984;-75
2022/07/13 07:22:24;;;;;;;;;;;;;;;22.42;50.60;97060.97;4955315;29;20410;-76
2022/07/13 07:24:51;;;;;;;;;;;;;;;22.47;50.31;97058.28;4955357;29;20063;-77
2022/07/13 07:27:17;;;;;;;;;;;;;;;22.58;51.39;97067.03;4955662;29;19983;-76
2022/07/13 07:29:43;;;;;;;;;;;;;;;22.69;49.52;97057.03;4955414;29;20350;-77
2022/07/13 07:32:09;;;;;;;;;;;;;;;22.76;49.77;97060.16;4955203;29;19969;-76
2022/07/13 07:34:36;;;;;;;;;;;;;;;22.86;48.57;97049.38;4955666;28;19960;-76
2022/07/13 07:37:03;;;;;;;;;;;;;;;22.99;47.31;97045.25;4957598;29;20324;-76
2022/07/13 07:39:29;;;;;;;;;;;;;;;23.27;47.90;97042.84;4959420;29;19958;-76
2022/07/13 07:41:55;;;;;;;;;;;;;;;23.53;47.84;97045.22;4958833;29;19957;-76
2022/07/13 07:44:21;;;;;;;;;;;;;;;23.57;45.10;97041.69;4958501;28;19964;-76
2022/07/13 07:46:47;;;;;;;;;;;;;;;23.56;44.64;97045.47;4958628;29;20312;-76
2022/07/13 07:49:13;;;;;;;;;;;;;;;23.68;46.36;97055.75;4958550;29;19960;-76
2022/07/13 07:51:39;;;;;;;;;;;;;;;23.78;46.15;97049.50;4958573;29;19964;-75
2022/07/13 07:54:05;;;;;;;;;;;;;;;23.85;46.11;97050.72;4958624;29;19968;-76
2022/07/13 07:56:31;;;;;;;;;;;;;;;23.83;44.28;97046.72;4958445;29;19969;-74
2022/07/13 07:58:57;;;;;;;;;;;;;;;;;;4958830;29;20327;-74
2022/07/13 08:01:23;;;;;;;;;;;;;;;23.81;45.38;97059.63;4959331;29;19994;-74
2022/07/13 08:03:49;;;;;;;;;;;;;;;;;;4958192;29;19955;-74
2022/07/13 08:06:16;;;;;;;;;;;;;;;23.86;44.65;97055.00;4958351;29;19995;-74
2022/07/13 08:08:42;;;;;;;;;;;;;;;23.94;44.46;97052.75;4958023;29;19988;-76
2022/07/13 08:11:09;;;;;;;;;;;;;;;24.02;42.95;97041.38;4958442;29;19970;-76
2022/07/13 08:13:35;;;;;;;;;;;;;;;24.12;43.38;97038.56;4957996;29;20414;-76
2022/07/13 08:16:02;;;;;;;;;;;;;;;24.11;42.68;97036.97;4958144;29;20448;-76
2022/07/13 08:18:28;;;;;;;;;;;;;;;24.12;42.36;97035.88;4957905;29;20417;-76
2022/07/13 08:20:54;;;;;;;;;;;;;;;24.16;43.84;97049.50;4958020;29;19984;-76
2022/07/13 08:26:05;;;;;;;;;;;;;;;24.31;44.92;97052.72;4946703;29;19958;-74
2022/07/13 08:28:31;;;;;;;;;;;;;;;24.45;43.46;97042.06;4957790;29;19980;-74
2022/07/13 08:30:57;;;;;;;;;;;;;;;24.61;42.39;97034.63;4958324;29;20411;-74
2022/07/13 08:38:51;;;;;;;;;;;;;;;24.87;41.04;97031.47;4949458;29;19966;-76
2022/07/13 08:41:17;;;;;;;;;;;;;;;24.92;40.87;97037.56;4956466;29;19998;-76
2022/07/13 08:43:43;;;;;;;;;;;;;;;25.04;41.52;97039.75;4957645;28;20323;-76
2022/07/13 08:46:09;;;;;;;;;;;;;;;25.18;41.60;97030.91;4957171;28;20053;-76
2022/07/13 08:48:37;;;;;;;;;;;;;;;25.35;41.86;97030.34;4957630;29;20358;-76
2022/07/13 08:51:04;;;;;;;;;;;;;;;25.54;41.59;97030.25;4957464;29;19973;-76
2022/07/13 08:53:30;;;;;;;;;;;;;;;25.67;39.71;97027.50;4957383;29;19971;-76
2022/07/13 08:55:56;;;;;;;;;;;;;;;25.79;39.10;97021.63;4957160;29;20060;-77
2022/07/13 08:58:22;;;;;;;;;;;;;;;25.90;39.47;97019.53;4957432;29;19962;-76
2022/07/13 09:00:49;;;;;;;;;;;;;;;25.97;38.52;97014.53;4957158;29;20430;-76
2022/07/13 09:09:59;;;;;;;;;;;;;;;26.31;36.41;97015.88;4951266;29;19952;-77
2022/07/13 09:12:26;;;;;;;;;;;;;;;26.38;38.08;97021.66;4957111;29;19957;-76
2022/07/13 09:14:56;;;;;;;;;;;;;;;26.44;38.30;97019.63;4956143;29;19971;-77
2022/07/13 09:17:38;;;;;;;;;;;;;;;26.56;38.78;97016.38;4956824;29;20436;-77
2022/07/13 09:20:05;;;;;;;;;;;;;;;26.67;39.17;97023.91;4956682;29;20453;-76
2022/07/13 09:22:31;;;;;;;;;;;;;;;26.79;37.32;97009.88;4957224;28;19965;-76
2022/07/13 09:24:57;;;;;;;;;;;;;;;26.84;34.74;97007.06;4956829;29;19964;-77
2022/07/13 09:27:23;;;;;;;;;;;;;;;26.90;36.64;97019.28;4956863;29;19962;-76
2022/07/13 09:29:49;;;;;;;;;;;;;;;27.03;36.78;97011.44;4955757;29;19957;-76
2022/07/13 09:32:15;;;;;;;;;;;;;;;27.14;35.51;97018.91;4955716;29;19965;-76
2022/07/13 09:34:46;;;;;;;;;;;;;;;27.24;32.45;97009.78;4956860;28;20423;-77
2022/07/13 09:37:13;;;;;;;;;;;;;;;27.14;30.58;97015.44;4956723;29;19970;-77
2022/07/13 09:39:58;;;;;;;;;;;;;;;27.24;33.49;97033.25;4956421;29;19957;-77
2022/07/13 09:42:27;;;;;;;;;;;;;;;27.40;31.90;97017.44;4956478;29;20416;-77
2022/07/13 09:47:48;;;;;;;;;;;;;;;27.47;33.38;97031.25;4956630;29;19971;-77
2022/07/13 09:50:17;;;;;;;;;;;;;;;27.53;33.21;97040.78;4956109;29;19960;-77
2022/07/13 09:52:44;;;;;;;;;;;;;;;27.53;33.21;97030.00;4956313;29;19965;-76
2022/07/13 09:55:10;;;;;;;;;;;;;;;27.61;31.58;97025.72;4955955;28;20316;-77
2022/07/13 09:57:42;;;;;;;;;;;;;;;27.72;32.50;97035.09;4954910;28;19970;-76
2022/07/13 10:00:11;;;;;;;;;;;;;;;27.88;33.01;97025.47;4955865;29;20441;-76
2022/07/13 10:02:37;;;;;;;;;;;;;;;27.92;32.04;97023.72;4956088;29;19959;-76
2022/07/13 10:05:03;;;;;;;;;;;;;;;27.92;31.47;97020.25;4956157;29;19955;-77
2022/07/13 10:07:30;;;;;;;;;;;;;;;27.89;31.59;97012.78;4956198;29;19966;-77
2022/07/13 10:09:57;;;;;;;;;;;;;;;27.99;31.73;97020.56;4955930;28;19962;-76
2022/07/13 10:12:23;;;;;;;;;;;;;;;28.15;31.24;97018.19;4955968;29;19972;-77
2022/07/13 10:14:52;;;;;;;;;;;;;;;28.19;32.75;97021.03;4956086;29;20342;-77
2022/07/13 10:17:19;;;;;;;;;;;;;;;28.32;32.40;97025.47;4955851;29;19967;-77
2022/07/13 10:20:05;;;;;;;;;;;;;;;28.51;31.39;97017.84;4955743;29;19966;-77
2022/07/13 10:22:38;;;;;;;;;;;;;;;28.70;30.25;97012.06;4955827;29;19974;-77
2022/07/13 10:25:05;;;;;;;;;;;;;;;28.84;29.38;97019.19;4954559;29;19965;-77
2022/07/13 10:27:31;;;;;;;;;;;;;;;28.94;31.11;97024.25;4955909;29;19993;-76
2022/07/13 10:29:59;;;;;;;;;;;;;;;29.03;29.43;97024.22;4955587;29;19954;-79
2022/07/13 10:32:31;;;;;;;;;;;;;;;29.11;29.23;97028.81;4955996;29;19957;-77
2022/07/13 10:35:09;;;;;;;;;;;;;;;29.05;24.90;97017.38;4955689;29;20014;-77
2022/07/13 10:37:53;;;;;;;;;;;;;;;29.12;29.19;97028.47;4955750;29;19965;-77
2022/07/13 10:40:20;;;;;;;;;;;;;;;29.31;29.02;97025.38;4955556;29;19959;-77
2022/07/13 10:42:59;;;;;;;;;;;;;;;29.49;26.65;97006.38;4955745;29;20019;-76
2022/07/13 10:45:31;;;;;;;;;;;;;;;29.62;28.03;97018.84;4955637;29;19965;-77
2022/07/13 10:47:57;;;;;;;;;;;;;;;29.75;27.28;97015.13;4955675;29;19975;-79
2022/07/13 10:50:24;;;;;;;;;;;;;;;29.70;26.97;97014.53;4955353;29;20101;-77
2022/07/13 10:52:50;;;;;;;;;;;;;;;29.62;28.34;97020.75;4955571;29;19965;-76
2022/07/13 10:55:16;;;;;;;;;;;;;;;29.69;28.84;97015.63;4955672;29;19958;-77
2022/07/13 10:57:42;;;;;;;;;;;;;;;29.81;28.24;97004.13;4955369;29;19990;-74
2022/07/13 11:00:28;;;;;;;;;;;;;;;29.91;26.74;97006.44;4955386;28;20011;-76
2022/07/13 11:03:03;;;;;;;;;;;;;;;30.05;27.18;97000.75;4955432;29;20314;-77
2022/07/13 11:05:32;;;;;;;;;;;;;;;30.21;27.96;96999.00;4954383;29;20319;-77
2022/07/13 11:08:10;;;;;;;;;;;;;;;30.26;25.10;96989.91;4955719;29;19980;-74
2022/07/13 11:10:36;;;;;;;;;;;;;;;30.28;27.35;96987.66;4946819;29;20352;-77
2022/07/13 11:13:09;;;;;;;;;;;;;;;30.44;26.71;96982.44;4959335;29;20460;-77
2022/07/13 11:15:45;;;;;;;;;;;;;;;30.53;25.59;96973.13;4959537;29;19960;-75
2022/07/13 11:18:27;;;;;;;;;;;;;;;30.55;26.85;96984.41;4959278;29;20343;-75
2022/07/13 11:20:57;;;;;;;;;;;;;;;30.66;23.58;96965.81;4958904;29;19993;-74
2022/07/13 11:26:31;;;;;;;;;;;;;;;30.77;25.32;96971.56;4959712;29;19956;-75
2022/07/13 11:29:04;;;;;;;;;;;;;;;30.72;23.93;96969.88;4958880;29;19975;-77
2022/07/13 11:31:30;;;;;;;;;;;;;;;30.79;26.21;96976.66;4959018;29;19962;-77
2022/07/13 11:33:56;;;;;;;;;;;;;;;30.95;25.94;96972.16;4958925;29;19969;-77
2022/07/13 11:36:24;;;;;;;;;;;;;;;31.17;26.90;96981.00;4958164;29;19965;-74
2022/07/13 11:38:50;;;;;;;;;;;;;;;31.44;25.17;96964.06;4958869;29;19960;-75
2022/07/13 11:41:17;;;;;;;;;;;;;;;31.68;25.17;96974.03;4958802;29;20014;-74
2022/07/13 11:43:53;;;;;;;;;;;;;;;31.86;24.36;96980.00;4958625;29;19967;-74
2022/07/13 11:46:26;;;;;;;;;;;;;;;32.01;22.80;96964.16;4958745;29;19976;-74
2022/07/13 11:49:02;;;;;;;;;;;;;;;32.15;24.35;96970.75;4958394;29;19979;-77
2022/07/13 11:51:28;;;;;;;;;;;;;;;32.37;23.70;96965.91;4958777;29;20464;-77
2022/07/13 11:53:54;;;;;;;;;;;;;;;32.47;21.86;96965.38;4958497;29;19966;-77
2022/07/13 11:56:20;;;;;;;;;;;;;;;32.46;22.92;96968.44;4958477;28;19969;-77
2022/07/13 11:58:47;;;;;;;;;;;;;;;32.44;21.12;96968.00;4957702;28;19962;-78
2022/07/13 12:01:15;;;;;;;;;;;;;;;32.47;21.54;96970.03;4958424;29;19975;-78
2022/07/13 12:03:45;;;;;;;;;;;;;;;32.48;17.37;96955.31;4944414;29;20331;-77
2022/07/13 12:06:11;;;;;;;;;;;;;;;32.56;22.01;96967.97;4958713;29;20324;-77
2022/07/13 12:08:38;;;;;;;;;;;;;;;32.71;21.58;96956.31;4958136;29;20077;-77
2022/07/13 12:11:05;;;;;;;;;;;;;;;32.92;17.71;96947.13;4958252;29;19972;-77
2022/07/13 12:13:35;;;;;;;;;;;;;;;33.00;21.01;96942.66;4957945;29;19960;-78
2022/07/13 12:16:02;;;;;;;;;;;;;;;32.90;17.56;96935.81;4959012;28;19957;-77
2022/07/13 12:18:29;;;;;;;;;;;;;;;32.53;19.49;96938.78;4958191;29;19963;-78
2022/07/13 12:20:56;;;;;;;;;;;;;;;32.32;20.24;96939.03;4957193;28;19983;-78
2022/07/13 12:23:22;;;;;;;;;;;;;;;32.22;20.44;96939.53;4957655;29;19962;-77
2022/07/13 12:26:03;;;;;;;;;;;;;;;32.12;20.90;96938.09;4957957;29;20356;-77
2022/07/13 12:28:28;;;;;;;;;;;;;;;32.20;23.06;96941.78;4957885;29;19980;-77
2022/07/13 12:30:56;;;;;;;;;;;;;;;32.14;18.23;96930.41;4957985;29;19965;-77
2022/07/13 12:33:23;;;;;;;;;;;;;;;32.04;17.82;96922.75;4958367;29;19954;-77
2022/07/13 12:36:00;;;;;;;;;;;;;;;31.93;21.06;96928.63;4957832;29;20410;-77
2022/07/13 12:38:26;;;;;;;;;;;;;;;31.85;18.21;96918.72;4957670;29;20399;-77
2022/07/13 12:40:53;;;;;;;;;;;;;;;31.74;20.73;96923.06;4957537;29;19996;-77
2022/07/13 12:43:19;;;;;;;;;;;;;;;31.75;21.27;96930.06;4957664;29;19956;-77
2022/07/13 12:45:46;;;;;;;;;;;;;;;31.89;23.05;96919.63;4957517;29;19969;-77
2022/07/13 12:48:19;;;;;;;;;;;;;;;32.09;22.50;96912.44;4957629;29;19969;-78
2022/07/13 12:51:01;;;;;;;;;;;;;;;32.38;22.31;96912.38;4958213;29;19970;-77
2022/07/13 12:53:47;;;;;;;;;;;;;;;32.68;21.11;96904.66;4945803;29;19952;-77
2022/07/13 12:56:14;;;;;;;;;;;;;;;32.86;21.24;96902.34;4953471;28;19969;-77
2022/07/13 12:58:41;;;;;;;;;;;;;;;32.93;19.82;96897.88;4957605;29;19966;-77
2022/07/13 13:01:07;;;;;;;;;;;;;;;33.04;19.25;96897.31;4957313;29;19962;-77
2022/07/13 13:03:33;;;;;;;;;;;;;;;32.96;19.24;96899.88;4956534;28;20348;-77
2022/07/13 13:05:59;;;;;;;;;;;;;;;32.85;20.49;96904.28;4957149;29;20416;-75
2022/07/13 13:08:25;;;;;;;;;;;;;;;32.77;20.93;96907.97;4957266;29;20442;-74
2022/07/13 13:10:51;;;;;;;;;;;;;;;32.72;19.75;96891.94;4957032;29;20062;-77
2022/07/13 13:13:17;;;;;;;;;;;;;;;32.63;18.90;96894.03;4956896;28;19962;-77